Time;durP1;ratioP1;P1;durP2;ratioP2;P2;SDS_P1;SDS_P2;PMS_P1;PMS_P2;Temp;Humidity;BMP_temperature;BMP_pressure;BME280_temperature;BME280_humidity;BME280_pressure;Samples;Min_cycle;Max_cycle;Signal;HPM_P1;HPM_P2
2023/06/28 00:00:49;;;;;;;3.22;1.10;;;;;;;30.94;30.71;100549.88;4995892;28;20286;-68
2023/06/28 00:03:18;;;;;;;2.42;1.50;;;;;;;30.87;30.19;100550.22;4993309;28;20085;-67
2023/06/28 00:05:47;;;;;;;2.92;0.90;;;;;;;30.82;30.55;100546.09;4989864;28;20057;-68
2023/06/28 00:08:15;;;;;;;5.10;1.10;;;;;;;30.84;32.34;100544.19;4988537;28;20219;-66
2023/06/28 00:10:44;;;;;;;3.00;1.00;;;;;;;30.86;32.21;100550.34;4993985;28;20050;-68
2023/06/28 00:13:13;;;;;;;4.10;0.77;;;;;;;30.85;30.67;100543.25;4990202;28;20042;-68
2023/06/28 00:15:43;;;;;;;1.20;0.80;;;;;;;30.80;32.25;100538.16;4994285;28;20445;-69
2023/06/28 00:18:15;;;;;;;2.15;1.00;;;;;;;30.54;32.16;100542.34;4992887;28;20093;-69
2023/06/28 00:20:44;;;;;;;2.10;0.95;;;;;;;30.27;32.45;100537.63;4984969;28;20051;-69
2023/06/28 00:23:13;;;;;;;3.10;0.82;;;;;;;30.03;34.00;100538.94;4985466;28;20417;-69
2023/06/28 00:25:43;;;;;;;1.40;0.80;;;;;;;29.86;31.87;100535.41;4987907;28;20051;-68
2023/06/28 00:28:14;;;;;;;4.07;1.02;;;;;;;29.67;32.42;100533.81;4976882;28;20141;-70
2023/06/28 00:30:44;;;;;;;2.35;1.00;;;;;;;29.65;32.08;100540.06;4991048;28;20078;-69
2023/06/28 00:33:19;;;;;;;1.55;0.90;;;;;;;29.67;34.06;100539.13;4989230;28;20125;-68
2023/06/28 00:35:48;;;;;;;4.40;1.00;;;;;;;29.58;33.68;100535.16;4988925;28;20116;-68
2023/06/28 00:38:17;;;;;;;12.15;1.77;;;;;;;29.54;34.57;100533.59;4993685;28;20093;-67
2023/06/28 00:40:45;;;;;;;2.78;0.93;;;;;;;29.52;34.89;100527.47;4975459;28;20536;-68
2023/06/28 00:43:14;;;;;;;1.23;1.00;;;;;;;29.58;34.92;100529.81;4992021;28;20046;-68
2023/06/28 00:45:45;;;;;;;2.20;1.00;;;;;;;29.48;35.51;100529.47;4988908;28;20104;-68
2023/06/28 00:48:14;;;;;;;4.22;1.20;;;;;;;29.32;34.30;100532.06;4991444;28;20053;-69
2023/06/28 00:50:43;;;;;;;2.55;1.10;;;;;;;29.22;35.18;100525.47;4993837;28;20042;-68
2023/06/28 00:53:15;;;;;;;2.03;0.85;;;;;;;29.14;35.33;100530.34;4989853;28;20039;-68
2023/06/28 00:55:44;;;;;;;2.90;0.90;;;;;;;29.08;35.17;100528.00;4989585;28;20050;-68
2023/06/28 00:58:13;;;;;;;2.33;1.08;;;;;;;28.96;35.80;100511.66;4985167;28;20051;-67
2023/06/28 01:00:44;;;;;;;4.20;1.13;;;;;;;28.98;35.73;100527.59;4985958;28;20050;-68
2023/06/28 01:03:17;;;;;;;3.53;1.15;;;;;;;28.90;36.24;100511.97;4994724;28;20050;-66
2023/06/28 01:05:48;;;;;;;1.55;0.80;;;;;;;28.81;37.43;100507.97;4990910;28;20824;-67
2023/06/28 01:08:19;;;;;;;2.05;0.80;;;;;;;28.83;34.17;100521.22;4993680;28;20046;-67
2023/06/28 01:10:49;;;;;;;1.58;0.90;;;;;;;28.88;34.56;100507.66;4991034;28;20051;-67
2023/06/28 01:13:19;;;;;;;6.05;0.80;;;;;;;28.93;35.35;100511.84;4992059;28;20054;-67
2023/06/28 01:15:48;;;;;;;1.35;0.82;;;;;;;28.90;35.80;100514.63;4986961;28;20058;-68
2023/06/28 01:18:19;;;;;;;1.75;1.00;;;;;;;28.92;36.15;100518.09;4985022;28;20070;-67
2023/06/28 01:20:49;;;;;;;1.23;0.80;;;;;;;28.90;35.59;100519.09;4998045;28;20181;-67
2023/06/28 01:23:20;;;;;;;3.97;0.90;;;;;;;28.89;36.23;100510.25;4992859;28;20073;-67
2023/06/28 01:25:49;;;;;;;1.92;0.88;;;;;;;28.99;35.02;100514.16;4987940;28;20046;-68
2023/06/28 01:28:19;;;;;;;1.80;0.90;;;;;;;29.01;35.52;100512.28;4993518;28;20062;-68
2023/06/28 01:30:48;;;;;;;3.60;1.02;;;;;;;29.06;34.16;100511.19;4990717;28;20126;-68
2023/06/28 01:33:17;;;;;;;3.33;1.10;;;;;;;29.11;33.47;100511.84;4994883;28;20124;-70
2023/06/28 01:35:46;;;;;;;3.92;0.88;;;;;;;29.09;33.68;100506.63;4988549;28;20104;-68
2023/06/28 01:38:16;;;;;;;3.50;1.00;;;;;;;29.13;33.82;100508.16;4989147;28;20468;-67
2023/06/28 01:40:53;;;;;;;1.45;1.20;;;;;;;29.11;35.77;100511.84;4985512;28;20129;-67
2023/06/28 01:43:23;;;;;;;3.17;0.80;;;;;;;29.03;36.91;100506.91;4984262;28;20054;-67
2023/06/28 01:45:52;;;;;;;2.22;0.90;;;;;;;28.98;37.71;100508.94;4988213;28;20054;-66
2023/06/28 01:48:21;;;;;;;2.65;0.77;;;;;;;28.88;34.83;100511.19;4991937;28;20101;-68
2023/06/28 01:50:49;;;;;;;1.65;0.88;;;;;;;28.82;34.73;100503.53;4998737;28;20038;-67
2023/06/28 01:53:21;;;;;;;1.08;0.80;;;;;;;28.79;34.45;100501.00;4983648;28;20057;-67
2023/06/28 01:55:51;;;;;;;1.17;0.77;;;;;;;28.73;34.17;100504.84;4993133;28;20054;-67
2023/06/28 01:58:20;;;;;;;1.30;0.80;;;;;;;28.70;34.38;100497.03;4984562;28;20050;-67
2023/06/28 02:00:49;;;;;;;2.92;0.80;;;;;;;28.77;34.10;100502.88;4985829;28;20069;-66
2023/06/28 02:03:18;;;;;;;3.85;0.77;;;;;;;28.81;34.01;100507.13;4990270;28;20053;-68
2023/06/28 02:05:47;;;;;;;3.65;0.90;;;;;;;28.79;34.07;100501.00;4986116;28;20057;-67
2023/06/28 02:08:15;;;;;;;2.75;0.88;;;;;;;28.79;34.00;100508.97;4987430;28;20173;-65
2023/06/28 02:10:44;;;;;;;1.90;0.90;;;;;;;28.78;34.22;100509.94;4992001;28;20046;-67
2023/06/28 02:13:14;;;;;;;2.33;0.77;;;;;;;28.74;34.16;100508.38;4994313;28;20049;-68
2023/06/28 02:15:43;;;;;;;0.90;0.70;;;;;;;28.72;34.23;100508.44;4993971;28;20543;-66
2023/06/28 02:18:16;;;;;;;1.73;0.80;;;;;;;28.63;34.41;100518.69;4990372;28;20105;-67
2023/06/28 02:20:45;;;;;;;3.47;0.88;;;;;;;28.57;34.60;100511.88;4986729;28;20073;-67
2023/06/28 02:23:13;;;;;;;2.10;0.98;;;;;;;28.53;34.79;100511.16;4994101;28;20062;-66
2023/06/28 02:25:43;;;;;;;2.35;0.95;;;;;;;28.54;34.99;100510.22;4989327;28;20046;-66
2023/06/28 02:28:14;;;;;;;2.90;1.30;;;;;;;28.54;34.77;100522.66;4986292;28;20487;-67
2023/06/28 02:30:42;;;;;;;2.08;0.70;;;;;;;28.51;34.63;100521.00;4984942;28;20065;-67
2023/06/28 02:33:11;;;;;;;1.15;0.70;;;;;;;28.49;34.80;100511.38;4996625;28;20044;-66
2023/06/28 02:35:40;;;;;;;4.13;0.82;;;;;;;28.52;34.90;100522.75;4987522;28;20042;-66
2023/06/28 02:38:09;;;;;;;2.90;0.93;;;;;;;28.52;34.78;100517.44;4989134;28;20515;-68
2023/06/28 02:40:37;;;;;;;1.48;0.70;;;;;;;28.43;34.65;100512.53;4991208;28;20288;-67
2023/06/28 02:43:06;;;;;;;3.60;0.70;;;;;;;28.39;34.77;100516.25;4998481;28;20043;-68
2023/06/28 02:45:36;;;;;;;3.90;0.90;;;;;;;28.39;34.78;100521.59;4993989;28;20053;-68
2023/06/28 02:48:05;;;;;;;2.38;0.65;;;;;;;28.40;35.07;100523.28;4994357;28;20050;-67
2023/06/28 02:50:37;;;;;;;1.20;0.80;;;;;;;28.37;35.67;100520.78;4984290;28;20054;-67
2023/06/28 02:53:05;;;;;;;1.33;0.83;;;;;;;28.39;36.99;100532.22;5008783;28;20487;-67
2023/06/28 02:55:34;;;;;;;2.55;1.00;;;;;;;28.36;38.16;100535.06;4991490;28;20050;-66
2023/06/28 02:58:03;;;;;;;2.10;0.73;;;;;;;28.35;37.14;100535.97;4993489;28;20077;-68
2023/06/28 03:00:31;;;;;;;2.05;0.70;;;;;;;28.33;36.18;100537.84;4992676;28;20588;-68
2023/06/28 03:03:03;;;;;;;1.25;0.70;;;;;;;28.30;37.32;100544.16;4993664;28;20058;-68
2023/06/28 03:05:31;;;;;;;;;;;;;;;28.24;37.02;100548.91;5000779;28;20141;-67
2023/06/28 03:08:00;;;;;;;1.27;1.02;;;;;;;28.12;37.70;100551.22;4997433;28;20426;-67
2023/06/28 03:10:28;;;;;;;2.83;0.50;;;;;;;28.03;39.01;100548.13;4998273;28;20524;-68
2023/06/28 03:12:57;;;;;;;1.60;0.60;;;;;;;27.97;39.70;100557.28;4995579;28;20046;-67
2023/06/28 03:15:26;;;;;;;3.45;0.75;;;;;;;27.92;37.61;100560.16;4995074;28;20511;-68
2023/06/28 03:18:01;;;;;;;0.90;0.50;;;;;;;27.86;35.75;100559.56;4995486;28;20069;-68
2023/06/28 03:20:32;;;;;;;0.68;0.50;;;;;;;27.77;38.76;100569.63;5001438;28;20535;-68
2023/06/28 03:23:00;;;;;;;0.90;0.50;;;;;;;27.68;37.92;100562.06;4995896;28;20062;-68
2023/06/28 03:25:29;;;;;;;2.53;0.73;;;;;;;27.58;36.12;100571.41;4996369;28;20057;-67
2023/06/28 03:27:58;;;;;;;1.67;0.50;;;;;;;27.52;35.62;100569.00;4992700;28;20056;-66
2023/06/28 03:30:26;;;;;;;2.55;0.75;;;;;;;27.45;37.04;100570.19;4994780;28;20047;-67
2023/06/28 03:32:55;;;;;;;1.00;0.70;;;;;;;27.35;34.18;100564.41;4993930;28;20046;-67
2023/06/28 03:35:24;;;;;;;0.47;0.40;;;;;;;27.23;34.76;100563.16;5002679;28;20437;-67
2023/06/28 03:37:55;;;;;;;1.33;0.65;;;;;;;27.18;36.71;100567.75;4993322;28;20047;-67
2023/06/28 03:40:24;;;;;;;1.02;0.82;;;;;;;27.08;35.92;100566.44;4994566;28;20053;-67
2023/06/28 03:42:53;;;;;;;2.33;0.50;;;;;;;27.02;36.72;100569.34;4995628;28;20045;-65
2023/06/28 03:45:30;;;;;;;1.65;0.70;;;;;;;26.94;38.73;100575.00;4995475;28;20277;-66
2023/06/28 03:47:59;;;;;;;2.38;0.70;;;;;;;26.83;39.22;100572.75;4998949;28;20948;-66
2023/06/28 03:50:27;;;;;;;0.95;0.60;;;;;;;26.76;38.50;100573.09;4997582;28;20515;-68
2023/06/28 03:52:58;;;;;;;0.82;0.60;;;;;;;26.68;38.96;100573.38;4993586;28;20050;-68
2023/06/28 03:55:29;;;;;;;2.05;0.60;;;;;;;26.62;38.61;100579.81;5001050;28;20548;-67
2023/06/28 03:57:58;;;;;;;0.70;0.60;;;;;;;26.54;39.18;100582.75;5001169;28;20065;-68
2023/06/28 04:00:27;;;;;;;1.17;0.60;;;;;;;26.47;39.60;100578.56;4991124;28;20051;-68
2023/06/28 04:02:55;;;;;;;1.10;0.70;;;;;;;26.43;39.81;100584.94;4997337;28;20054;-67
2023/06/28 04:05:24;;;;;;;2.15;0.82;;;;;;;26.38;40.93;100591.34;4993535;28;20050;-68
2023/06/28 04:07:57;;;;;;;0.77;0.50;;;;;;;26.31;41.83;100596.03;4990378;28;20050;-67
2023/06/28 04:10:32;;;;;;;2.05;0.60;;;;;;;26.21;41.77;100589.34;4999940;28;20046;-69
2023/06/28 04:13:01;;;;;;;0.80;0.50;;;;;;;26.13;41.92;100598.44;4994068;28;20066;-67
2023/06/28 04:15:29;;;;;;;2.22;0.60;;;;;;;26.07;42.23;100593.38;4988732;28;20054;-67
2023/06/28 04:18:11;;;;;;;1.23;0.60;;;;;;;25.96;41.98;100598.22;4999975;28;20050;-67
2023/06/28 04:20:39;;;;;;;0.80;0.50;;;;;;;25.89;41.69;100604.69;4994952;28;20054;-67
2023/06/28 04:23:08;;;;;;;0.65;0.60;;;;;;;25.82;40.50;100611.09;4989468;28;20488;-67
2023/06/28 04:25:46;;;;;;;1.40;0.60;;;;;;;25.65;39.70;100601.06;4991491;28;20066;-67
2023/06/28 04:28:15;;;;;;;0.98;0.40;;;;;;;25.61;39.27;100618.00;4986084;28;20046;-67
2023/06/28 04:30:43;;;;;;;1.15;0.47;;;;;;;25.52;42.67;100615.66;4987661;28;20510;-67
2023/06/28 04:33:14;;;;;;;1.85;0.52;;;;;;;25.45;42.00;100615.91;4982231;28;20105;-67
2023/06/28 04:35:46;;;;;;;1.37;0.50;;;;;;;25.38;37.56;100618.78;4983682;28;20060;-67
2023/06/28 04:38:14;;;;;;;0.40;0.40;;;;;;;25.28;38.36;100624.41;4986621;28;20051;-67
2023/06/28 04:40:45;;;;;;;0.82;0.35;;;;;;;25.22;38.49;100624.63;4980229;28;20046;-67
2023/06/28 04:43:14;;;;;;;1.60;0.40;;;;;;;25.08;35.39;100616.22;4992154;28;20145;-70
2023/06/28 04:45:43;;;;;;;0.52;0.43;;;;;;;25.03;38.40;100634.91;4988938;28;20049;-67
2023/06/28 04:48:11;;;;;;;0.40;0.20;;;;;;;24.90;36.69;100623.00;4989115;28;20046;-68
2023/06/28 04:50:40;;;;;;;1.17;0.50;;;;;;;24.81;35.27;100629.44;4983600;28;20050;-67
2023/06/28 04:53:09;;;;;;;1.08;0.30;;;;;;;24.73;35.66;100634.09;4988405;28;20054;-67
2023/06/28 04:55:37;;;;;;;0.80;0.30;;;;;;;24.61;35.52;100626.56;4974402;28;20484;-68
2023/06/28 04:58:08;;;;;;;0.55;0.20;;;;;;;24.59;35.74;100637.16;4986887;28;20049;-67
2023/06/28 05:00:37;;;;;;;2.13;0.32;;;;;;;24.46;36.76;100633.13;4985087;28;20054;-67
2023/06/28 05:03:05;;;;;;;0.40;0.30;;;;;;;24.46;37.41;100641.94;4988972;28;20752;-68
2023/06/28 05:05:34;;;;;;;0.65;0.50;;;;;;;24.39;37.81;100648.31;4983114;28;20050;-67
2023/06/28 05:08:03;;;;;;;0.65;0.32;;;;;;;24.32;37.39;100656.47;4988811;28;20054;-68
2023/06/28 05:10:31;;;;;;;0.90;0.40;;;;;;;24.24;37.31;100660.22;4987694;28;20283;-68
2023/06/28 05:13:00;;;;;;;1.38;0.32;;;;;;;24.17;37.72;100668.38;4989853;28;20050;-68
2023/06/28 05:15:32;;;;;;;0.55;0.30;;;;;;;24.09;38.32;100659.78;4984437;28;20502;-68
2023/06/28 05:18:01;;;;;;;0.85;0.32;;;;;;;24.01;39.73;100665.28;4985280;28;20057;-69
2023/06/28 05:20:31;;;;;;;2.17;0.30;;;;;;;23.89;38.81;100662.97;4979603;28;20640;-68
2023/06/28 05:23:11;;;;;;;0.40;0.20;;;;;;;23.82;40.45;100657.84;4984132;28;20480;-66
2023/06/28 05:25:40;;;;;;;0.98;0.35;;;;;;;23.80;39.95;100664.06;4984510;28;20120;-67
2023/06/28 05:28:10;;;;;;;0.47;0.32;;;;;;;23.78;39.43;100665.91;4985964;28;20066;-66
2023/06/28 05:30:41;;;;;;;0.20;0.20;;;;;;;23.65;39.39;100664.47;4980765;28;20930;-67
2023/06/28 05:33:10;;;;;;;0.98;0.30;;;;;;;23.55;40.27;100654.13;4980525;28;20054;-67
2023/06/28 05:35:39;;;;;;;1.40;0.40;;;;;;;23.46;40.86;100662.28;4984575;28;20574;-66
2023/06/28 05:38:08;;;;;;;0.73;0.28;;;;;;;23.35;41.12;100657.28;4982240;28;20055;-67
2023/06/28 05:40:37;;;;;;;1.00;0.30;;;;;;;23.29;40.78;100653.91;4976775;28;20058;-66
2023/06/28 05:43:06;;;;;;;1.95;0.30;;;;;;;23.25;40.68;100660.16;4970462;28;20057;-66
2023/06/28 05:45:34;;;;;;;0.32;0.30;;;;;;;23.19;40.64;100656.78;4981920;28;20082;-65
2023/06/28 05:48:05;;;;;;;1.50;0.30;;;;;;;23.14;41.55;100660.44;4977161;28;20120;-65
2023/06/28 05:50:33;;;;;;;1.27;0.10;;;;;;;23.01;41.86;100659.84;4981395;28;20054;-65
2023/06/28 05:53:02;;;;;;;0.40;0.30;;;;;;;22.95;41.61;100658.22;4983836;28;20053;-66
2023/06/28 05:55:31;;;;;;;1.05;0.32;;;;;;;22.86;40.91;100661.06;4985672;28;20050;-66
2023/06/28 05:57:59;;;;;;;0.40;0.30;;;;;;;22.77;43.19;100661.28;4984486;28;20145;-65
2023/06/28 06:00:28;;;;;;;0.90;0.40;;;;;;;22.72;42.61;100664.00;4982168;28;20054;-65
2023/06/28 06:02:58;;;;;;;0.55;0.30;;;;;;;22.69;42.11;100661.41;4990475;28;20061;-65
2023/06/28 06:05:28;;;;;;;0.47;0.30;;;;;;;22.65;40.96;100662.38;4983407;28;20050;-65
2023/06/28 06:07:56;;;;;;;0.30;0.20;;;;;;;22.56;40.33;100658.22;4979513;28;20058;-65
2023/06/28 06:10:25;;;;;;;1.45;0.20;;;;;;;22.50;40.98;100666.22;4986970;28;20057;-65
2023/06/28 06:12:54;;;;;;;0.57;0.35;;;;;;;22.41;41.06;100671.69;4982770;28;20129;-66
2023/06/28 06:15:25;;;;;;;0.95;0.22;;;;;;;22.30;40.95;100668.41;4987202;28;20056;-65
2023/06/28 06:17:54;;;;;;;0.45;0.30;;;;;;;22.21;41.42;100666.81;4989507;28;20054;-65
2023/06/28 06:20:23;;;;;;;0.55;0.30;;;;;;;22.16;41.57;100671.28;4985757;28;20054;-66
2023/06/28 06:22:53;;;;;;;0.45;0.30;;;;;;;22.12;41.91;100670.47;4985642;28;20512;-66
2023/06/28 06:25:22;;;;;;;0.68;0.38;;;;;;;22.12;41.80;100674.88;4985823;28;20273;-66
2023/06/28 06:27:50;;;;;;;0.52;0.28;;;;;;;22.09;42.31;100678.44;4989492;28;20042;-66
2023/06/28 06:30:19;;;;;;;0.73;0.40;;;;;;;22.07;42.48;100679.38;4983859;28;20047;-65
2023/06/28 06:32:47;;;;;;;0.40;0.25;;;;;;;22.02;42.75;100675.97;4987969;28;20058;-66
2023/06/28 06:35:16;;;;;;;0.28;0.22;;;;;;;21.97;44.92;100686.59;4987994;28;20076;-66
2023/06/28 06:37:45;;;;;;;0.57;0.22;;;;;;;21.86;44.21;100676.25;4986169;28;20054;-65
2023/06/28 06:40:16;;;;;;;0.30;0.15;;;;;;;21.78;44.45;100680.78;4985427;28;20053;-66
2023/06/28 06:42:46;;;;;;;0.82;0.38;;;;;;;21.71;45.13;100681.78;4984514;28;20050;-66
2023/06/28 06:45:17;;;;;;;1.52;0.30;;;;;;;21.62;43.82;100684.56;4985384;28;20051;-65
2023/06/28 06:47:46;;;;;;;0.40;0.30;;;;;;;21.58;44.03;100677.63;4985947;28;20058;-66
2023/06/28 06:50:17;;;;;;;0.30;0.20;;;;;;;21.53;44.65;100675.06;4984877;28;20408;-66
2023/06/28 06:52:46;;;;;;;1.55;0.30;;;;;;;21.52;46.66;100690.00;4986170;28;20119;-66
2023/06/28 06:55:16;;;;;;;1.75;0.30;;;;;;;21.47;44.67;100683.94;4986093;28;20077;-66
2023/06/28 06:57:45;;;;;;;0.38;0.22;;;;;;;21.49;46.26;100687.44;4992818;28;20578;-66
2023/06/28 07:00:16;;;;;;;0.32;0.22;;;;;;;21.49;47.44;100690.06;4984502;28;20051;-65
2023/06/28 07:02:44;;;;;;;2.35;0.57;;;;;;;21.47;49.11;100690.97;4985532;28;20103;-66
2023/06/28 07:05:14;;;;;;;2.17;0.50;;;;;;;21.37;50.09;100690.22;4986936;28;20088;-66
2023/06/28 07:07:44;;;;;;;2.25;0.50;;;;;;;21.18;50.06;100683.50;4987922;28;20081;-66
2023/06/28 07:10:13;;;;;;;2.60;0.60;;;;;;;21.07;50.48;100691.56;4987352;28;20055;-66
2023/06/28 07:12:45;;;;;;;1.17;0.38;;;;;;;20.95;51.02;100697.00;4981059;28;20053;-66
2023/06/28 07:15:14;;;;;;;1.27;0.30;;;;;;;20.89;52.03;100687.44;4988546;28;20053;-66
2023/06/28 07:17:43;;;;;;;0.90;0.60;;;;;;;20.86;53.34;100693.59;4987590;28;20625;-66
2023/06/28 07:20:12;;;;;;;1.98;0.80;;;;;;;20.80;53.81;100692.81;4985646;28;20042;-66
2023/06/28 07:22:41;;;;;;;1.08;0.57;;;;;;;20.73;54.71;100697.31;4984533;28;20528;-66
2023/06/28 07:25:10;;;;;;;1.35;0.60;;;;;;;20.65;55.64;100696.53;4990045;28;20047;-66
2023/06/28 07:27:38;;;;;;;1.13;0.77;;;;;;;20.56;56.34;100710.66;4983517;28;20050;-66
2023/06/28 07:30:10;;;;;;;3.25;0.60;;;;;;;20.42;56.92;100708.16;4985841;28;20500;-65
2023/06/28 07:32:39;;;;;;;0.70;0.45;;;;;;;20.34;57.20;100711.75;4985395;28;20508;-65
2023/06/28 07:35:08;;;;;;;1.33;0.50;;;;;;;20.26;57.44;100709.25;4988154;28;20038;-65
2023/06/28 07:37:36;;;;;;;0.57;0.57;;;;;;;20.20;57.59;100701.41;4988405;28;20050;-65
2023/06/28 07:40:06;;;;;;;3.15;0.40;;;;;;;20.17;58.22;100710.19;4993963;28;20054;-66
2023/06/28 07:42:36;;;;;;;1.13;0.50;;;;;;;20.12;58.81;100706.75;4986904;28;20046;-66
2023/06/28 07:45:05;;;;;;;0.47;0.30;;;;;;;20.02;58.36;100706.00;4990091;28;20046;-66
2023/06/28 07:47:36;;;;;;;0.90;0.50;;;;;;;20.02;58.54;100707.72;4989083;28;20076;-66
2023/06/28 07:50:05;;;;;;;0.85;0.30;;;;;;;20.01;59.13;100708.63;4987708;28;20050;-66
2023/06/28 07:52:33;;;;;;;0.77;0.60;;;;;;;19.91;59.96;100715.72;4989031;28;20081;-66
2023/06/28 07:55:04;;;;;;;1.20;0.55;;;;;;;19.77;59.72;100713.22;4991942;28;20057;-66
2023/06/28 07:57:32;;;;;;;1.73;0.63;;;;;;;19.71;60.06;100704.53;4989780;28;20786;-66
2023/06/28 08:00:01;;;;;;;2.47;0.68;;;;;;;19.66;60.05;100715.06;4988391;28;20058;-66
2023/06/28 08:02:29;;;;;;;0.75;0.50;;;;;;;19.57;61.45;100710.75;4985003;28;20050;-66
2023/06/28 08:05:00;;;;;;;1.05;0.60;;;;;;;19.46;62.31;100721.31;4992102;28;20792;-66
2023/06/28 08:07:28;;;;;;;0.65;0.43;;;;;;;19.37;62.17;100713.50;4991688;28;20502;-65
2023/06/28 08:09:57;;;;;;;0.68;0.40;;;;;;;19.36;62.05;100713.53;4985957;28;20065;-65
2023/06/28 08:12:25;;;;;;;2.38;0.57;;;;;;;19.31;62.47;100724.06;4991676;28;20053;-65
2023/06/28 08:14:54;;;;;;;0.47;0.30;;;;;;;19.29;62.79;100712.72;4984941;28;20780;-65
2023/06/28 08:17:23;;;;;;;0.88;0.70;;;;;;;19.27;62.92;100721.47;4994174;28;20066;-65
2023/06/28 08:19:52;;;;;;;0.38;0.38;;;;;;;19.20;62.68;100725.91;4990549;28;20496;-65
2023/06/28 08:22:24;;;;;;;4.50;0.60;;;;;;;19.15;63.00;100725.03;4989296;28;20081;-65
2023/06/28 08:24:53;;;;;;;1.42;0.60;;;;;;;19.09;63.25;100731.19;4988340;28;20038;-65
2023/06/28 08:27:22;;;;;;;2.05;0.60;;;;;;;19.07;63.66;100727.72;4987832;28;20124;-66
2023/06/28 08:29:51;;;;;;;1.80;0.68;;;;;;;19.03;64.01;100733.84;4988265;28;20076;-65
2023/06/28 08:32:19;;;;;;;1.17;0.30;;;;;;;18.92;64.99;100730.41;4987573;28;20058;-66
2023/06/28 08:34:48;;;;;;;1.08;0.57;;;;;;;18.85;65.60;100734.81;4992343;28;20084;-65
2023/06/28 08:37:17;;;;;;;1.17;0.45;;;;;;;18.78;65.84;100731.38;4986977;28;20121;-66
2023/06/28 08:39:54;;;;;;;1.35;0.50;;;;;;;18.74;65.99;100731.38;4988093;28;20524;-66
2023/06/28 08:42:24;;;;;;;1.25;0.35;;;;;;;18.69;65.92;100734.00;4988508;28;20064;-66
2023/06/28 08:44:57;;;;;;;1.13;0.60;;;;;;;18.66;66.53;100735.75;4995820;28;20072;-65
2023/06/28 08:47:30;;;;;;;0.50;0.40;;;;;;;18.60;66.86;100742.75;4988489;28;20050;-66
2023/06/28 08:50:00;;;;;;;1.15;0.65;;;;;;;18.58;67.06;100735.78;4986024;28;20113;-65
2023/06/28 08:52:35;;;;;;;1.10;0.50;;;;;;;18.53;66.94;100746.28;4983209;28;20061;-65
2023/06/28 08:55:06;;;;;;;0.70;0.40;;;;;;;18.47;67.08;100748.91;4987757;28;20059;-65
2023/06/28 08:57:36;;;;;;;0.70;0.30;;;;;;;18.40;67.47;100742.81;4988790;28;20084;-65
2023/06/28 09:00:05;;;;;;;0.70;0.40;;;;;;;18.37;67.19;100750.69;4987949;28;20054;-65
2023/06/28 09:02:35;;;;;;;0.93;0.60;;;;;;;18.33;67.69;100743.72;4986179;28;20055;-65
2023/06/28 09:05:05;;;;;;;2.47;0.60;;;;;;;18.29;67.71;100748.97;4986392;28;20082;-66
2023/06/28 09:07:36;;;;;;;2.95;0.70;;;;;;;18.23;68.02;100744.59;4985232;28;20050;-66
2023/06/28 09:10:11;;;;;;;3.88;0.63;;;;;;;18.18;68.27;100747.22;4989484;28;20053;-66
2023/06/28 09:12:40;;;;;;;1.85;0.50;;;;;;;18.15;69.06;100746.38;4990463;28;20253;-66
2023/06/28 09:15:10;;;;;;;2.45;0.50;;;;;;;18.12;70.34;100752.50;4993332;28;20061;-64
2023/06/28 09:17:38;;;;;;;0.73;0.50;;;;;;;18.07;70.05;100749.00;4984201;28;20795;-65
2023/06/28 09:20:20;;;;;;;0.75;0.50;;;;;;;18.03;69.75;100752.50;4985399;28;20540;-65
2023/06/28 09:22:57;;;;;;;1.77;0.50;;;;;;;17.95;69.89;100755.13;4986455;28;20513;-65
2023/06/28 09:25:29;;;;;;;0.98;0.30;;;;;;;17.92;70.21;100759.50;4988246;28;20050;-65
2023/06/28 09:27:58;;;;;;;3.53;0.82;;;;;;;17.89;70.28;100759.47;4991443;28;20543;-65
2023/06/28 09:30:27;;;;;;;1.52;0.70;;;;;;;17.85;70.86;100755.16;4990822;28;20061;-64
2023/06/28 09:32:55;;;;;;;0.98;0.32;;;;;;;17.79;69.80;100758.59;4990231;28;20052;-65
2023/06/28 09:35:25;;;;;;;1.05;0.45;;;;;;;17.78;70.29;100765.56;4987920;28;20054;-66
2023/06/28 09:37:57;;;;;;;0.70;0.40;;;;;;;17.75;71.13;100768.19;4988733;28;20054;-65
2023/06/28 09:40:34;;;;;;;0.80;0.60;;;;;;;17.71;70.42;100763.84;4987864;28;20116;-65
2023/06/28 09:43:03;;;;;;;0.75;0.52;;;;;;;17.65;71.07;100769.06;4986089;28;20053;-65
2023/06/28 09:45:33;;;;;;;2.72;0.40;;;;;;;17.60;71.27;100773.41;4986601;28;20053;-65
2023/06/28 09:48:05;;;;;;;0.47;0.30;;;;;;;17.55;72.07;100780.41;4987289;28;20136;-65
2023/06/28 09:50:38;;;;;;;0.60;0.40;;;;;;;17.45;72.31;100776.88;4987449;28;20065;-66
2023/06/28 09:53:11;;;;;;;0.70;0.35;;;;;;;17.48;72.99;100789.97;4986555;28;20050;-66
2023/06/28 09:55:43;;;;;;;0.57;0.38;;;;;;;17.45;72.86;100795.19;4999059;28;20045;-65
2023/06/28 09:58:13;;;;;;;5.28;0.40;;;;;;;17.41;71.83;100801.31;4986764;28;20137;-66
2023/06/28 10:00:43;;;;;;;1.70;0.80;;;;;;;17.38;72.22;100798.66;4987006;28;20068;-65
2023/06/28 10:03:15;;;;;;;0.30;0.30;;;;;;;17.24;73.61;100780.31;4982861;28;20042;-65
2023/06/28 10:05:46;;;;;;;2.90;0.60;;;;;;;17.17;72.75;100778.56;4991528;28;20054;-66
2023/06/28 10:08:16;;;;;;;2.03;0.60;;;;;;;17.16;73.24;100788.16;4993086;28;20054;-66
2023/06/28 10:10:49;;;;;;;0.95;0.40;;;;;;;17.15;73.29;100798.59;4987402;28;20420;-66
2023/06/28 10:13:20;;;;;;;;;;;;;;;17.13;73.72;100808.16;4987530;28;20677;-66
2023/06/28 10:15:53;;;;;;;1.00;0.40;;;;;;;17.06;73.90;100802.03;4986298;28;19930;-66
2023/06/28 10:18:30;;;;;;;0.90;0.85;;;;;;;17.01;73.48;100803.78;4989332;28;20073;-65
2023/06/28 10:20:59;;;;;;;3.10;0.70;;;;;;;16.96;73.40;100795.91;4985883;28;20078;-65
2023/06/28 10:23:29;;;;;;;2.38;0.55;;;;;;;16.91;73.44;100802.00;4986936;28;20054;-65
2023/06/28 10:26:02;;;;;;;5.07;0.90;;;;;;;16.87;73.74;100801.09;4981594;28;20551;-65
2023/06/28 10:28:33;;;;;;;0.75;0.38;;;;;;;16.80;75.34;100798.47;4986936;28;20980;-64
2023/06/28 10:31:08;;;;;;;4.60;0.70;;;;;;;16.74;75.24;100800.16;4984870;28;20124;-65
2023/06/28 10:33:37;;;;;;;4.10;0.63;;;;;;;16.73;75.29;100803.63;4989727;28;20129;-65
2023/06/28 10:36:07;;;;;;;1.17;0.52;;;;;;;16.73;75.21;100806.22;4979606;28;20074;-65
2023/06/28 10:38:37;;;;;;;10.52;0.88;;;;;;;16.67;75.06;100798.34;4986875;28;20053;-66
2023/06/28 10:41:08;;;;;;;2.45;0.77;;;;;;;16.70;75.24;100805.38;4988168;28;20046;-65
2023/06/28 10:43:37;;;;;;;1.88;0.70;;;;;;;16.66;74.66;100807.06;4983547;28;20058;-65
2023/06/28 10:46:21;;;;;;;2.15;0.93;;;;;;;16.64;73.94;100806.19;4986575;28;20049;-65
2023/06/28 10:48:53;;;;;;;1.65;0.60;;;;;;;16.57;73.77;100827.06;4986684;28;20047;-66
2023/06/28 10:51:23;;;;;;;0.77;0.47;;;;;;;16.48;76.76;100826.13;4992549;28;20082;-65
2023/06/28 10:54:07;;;;;;;3.35;0.50;;;;;;;16.40;76.59;100822.59;4986225;28;20054;-65
2023/06/28 10:56:45;;;;;;;1.08;0.50;;;;;;;16.36;75.86;100818.22;4983026;28;20137;-65
2023/06/28 10:59:14;;;;;;;1.70;0.50;;;;;;;16.36;75.86;100827.78;4983795;28;20583;-65
2023/06/28 11:01:55;;;;;;;3.58;0.63;;;;;;;16.30;76.62;100828.59;4988035;28;20050;-65
2023/06/28 11:04:25;;;;;;;0.40;0.40;;;;;;;16.26;76.16;100834.66;4987168;28;20051;-65
2023/06/28 11:07:15;;;;;;;0.80;0.55;;;;;;;16.22;76.87;100831.19;4986119;28;20058;-65
2023/06/28 11:10:16;;;;;;;0.47;0.40;;;;;;;16.21;76.25;100832.03;4989555;28;20113;-65
2023/06/28 11:12:49;;;;;;;1.63;0.60;;;;;;;16.22;75.64;100833.78;4985225;28;20047;-64
2023/06/28 11:15:29;;;;;;;1.13;0.65;;;;;;;16.20;76.09;100827.69;4991197;28;20603;-65
2023/06/28 11:18:10;;;;;;;0.93;0.75;;;;;;;16.18;77.89;100832.00;4990500;28;20046;-65
2023/06/28 11:20:49;;;;;;;2.42;0.40;;;;;;;16.07;78.03;100837.13;4990375;28;20046;-65
2023/06/28 11:23:26;;;;;;;0.75;0.40;;;;;;;15.99;79.34;100843.13;4988665;28;20416;-65
2023/06/28 11:26:04;;;;;;;0.40;0.30;;;;;;;15.89;80.05;100843.06;4991389;28;20061;-64
2023/06/28 11:28:35;;;;;;;3.20;0.40;;;;;;;15.85;79.77;100843.03;4990456;28;20046;-65
2023/06/28 11:31:20;;;;;;;2.67;0.60;;;;;;;15.83;80.46;100845.63;4990460;28;20047;-64
2023/06/28 11:33:50;;;;;;;0.52;0.40;;;;;;;15.77;80.73;100850.78;4990029;28;20053;-64
2023/06/28 11:36:20;;;;;;;0.30;0.30;;;;;;;15.70;80.05;100842.03;4989543;28;20139;-66
2023/06/28 11:38:49;;;;;;;0.98;0.60;;;;;;;15.67;80.45;100846.31;4987269;28;20050;-66
2023/06/28 11:41:21;;;;;;;1.10;0.50;;;;;;;15.73;79.54;100855.97;4988871;28;20061;-66